Accueil
METAR-TAF:

METAR-TAF

Aéroports :

Schwäbisch Hall, Allemagne

latitude: 49-07-06N, longitude: 9-47-02E, altitude: 398 m

Observation

Le bulletin a été fait il y a 18 minutes, à 08:20 UTC
Vent 3 kt de nord/nord-est, variant entre nord-ouest et est/sud-est
Température 7°C
Humidité 66%
Pression 1022 hPa
Visibilité 10 km ou plus
Quelques nuages à une hauteur de 4900 ft

METAR: EDTY 170820Z 02003KT 310V120 9999 FEW049 07/01 Q1022

Heure: 10:38 (08:38 UTC)

Prévision

Le bulletin a été fait il y a 38 minutes, à 08:00 UTC
Prévision valable du 17 à 09 UTC au 17 à 18 UTC
Vent 6 kt de nord
Visibilité 10 km ou plus
Quelques nuages à une hauteur de 2500 ft
Nuages fragmentés à une hauteur de 4500 ft

TAF: EDTY 170800Z 1709/1718 01006KT 9999 FEW025 BKN045

Observations et prévisions météorologiques de plus de 4000 aéroports (messages METAR et TAF).

Les stations disponibles sont représentées par des disques jaunes et rouges sur la carte.

Passer la souris dessus pour voir le nom de la station.

Cliquer dessus pour voir les observations et prévisions météorologiques.

Pour changer de carte: cliquez sur les boutons verts avec une croix noire pour zoomer, sur le bouton vert avec un tiret pour effectuer un zoom arrière, ou sur les flèches vertes pour les cartes adjacentes.


METAR-TAF: